sensor_id;sensor_type;location;lat;lon;timestamp;P1;durP1;ratioP1;P2;durP2;ratioP2
27025;SDS011;14565;48.626;8.978;2022-12-18T00:01:42;28.83;;;10.52;;
27025;SDS011;14565;48.626;8.978;2022-12-18T00:04:12;30.27;;;10.77;;
27025;SDS011;14565;48.626;8.978;2022-12-18T00:06:41;28.85;;;11.70;;
27025;SDS011;14565;48.626;8.978;2022-12-18T00:09:09;27.52;;;11.98;;
27025;SDS011;14565;48.626;8.978;2022-12-18T00:11:38;35.67;;;12.23;;
27025;SDS011;14565;48.626;8.978;2022-12-18T00:14:04;34.58;;;14.45;;
27025;SDS011;14565;48.626;8.978;2022-12-18T00:16:30;23.65;;;10.88;;
27025;SDS011;14565;48.626;8.978;2022-12-18T00:18:58;26.25;;;9.52;;
27025;SDS011;14565;48.626;8.978;2022-12-18T00:21:24;26.50;;;10.55;;
27025;SDS011;14565;48.626;8.978;2022-12-18T00:23:51;22.35;;;10.30;;
27025;SDS011;14565;48.626;8.978;2022-12-18T00:26:21;24.50;;;10.40;;
27025;SDS011;14565;48.626;8.978;2022-12-18T00:28:48;28.20;;;11.25;;
27025;SDS011;14565;48.626;8.978;2022-12-18T00:31:15;27.27;;;10.38;;
27025;SDS011;14565;48.626;8.978;2022-12-18T00:36:12;25.38;;;9.25;;
27025;SDS011;14565;48.626;8.978;2022-12-18T00:38:38;27.90;;;9.38;;
27025;SDS011;14565;48.626;8.978;2022-12-18T00:41:05;31.48;;;12.02;;
27025;SDS011;14565;48.626;8.978;2022-12-18T00:43:34;20.50;;;7.17;;
27025;SDS011;14565;48.626;8.978;2022-12-18T00:46:03;25.73;;;10.48;;
27025;SDS011;14565;48.626;8.978;2022-12-18T00:48:29;22.98;;;9.98;;
27025;SDS011;14565;48.626;8.978;2022-12-18T00:50:56;27.58;;;10.70;;
27025;SDS011;14565;48.626;8.978;2022-12-18T00:53:22;24.35;;;10.90;;
27025;SDS011;14565;48.626;8.978;2022-12-18T00:55:48;31.67;;;12.15;;
27025;SDS011;14565;48.626;8.978;2022-12-18T00:58:14;29.65;;;11.13;;
27025;SDS011;14565;48.626;8.978;2022-12-18T01:00:41;25.85;;;10.07;;
27025;SDS011;14565;48.626;8.978;2022-12-18T01:03:07;24.85;;;9.77;;
27025;SDS011;14565;48.626;8.978;2022-12-18T01:05:33;24.58;;;11.35;;
27025;SDS011;14565;48.626;8.978;2022-12-18T01:07:59;39.03;;;13.13;;
27025;SDS011;14565;48.626;8.978;2022-12-18T01:10:25;31.77;;;12.38;;
27025;SDS011;14565;48.626;8.978;2022-12-18T01:12:52;30.58;;;11.73;;
27025;SDS011;14565;48.626;8.978;2022-12-18T01:15:18;29.27;;;11.07;;
27025;SDS011;14565;48.626;8.978;2022-12-18T01:17:44;27.20;;;11.82;;
27025;SDS011;14565;48.626;8.978;2022-12-18T01:20:11;26.23;;;10.07;;
27025;SDS011;14565;48.626;8.978;2022-12-18T01:22:38;28.98;;;10.15;;
27025;SDS011;14565;48.626;8.978;2022-12-18T01:25:04;27.52;;;9.43;;
27025;SDS011;14565;48.626;8.978;2022-12-18T01:27:31;24.60;;;9.93;;
27025;SDS011;14565;48.626;8.978;2022-12-18T01:32:24;29.83;;;9.73;;
27025;SDS011;14565;48.626;8.978;2022-12-18T01:34:50;23.35;;;9.18;;
27025;SDS011;14565;48.626;8.978;2022-12-18T01:37:16;25.55;;;9.68;;
27025;SDS011;14565;48.626;8.978;2022-12-18T01:39:42;32.63;;;10.93;;
27025;SDS011;14565;48.626;8.978;2022-12-18T01:42:12;22.77;;;10.13;;
27025;SDS011;14565;48.626;8.978;2022-12-18T01:50:01;26.15;;;8.63;;
27025;SDS011;14565;48.626;8.978;2022-12-18T01:52:28;29.27;;;10.15;;
27025;SDS011;14565;48.626;8.978;2022-12-18T01:54:54;23.55;;;9.88;;
27025;SDS011;14565;48.626;8.978;2022-12-18T01:57:21;36.78;;;12.80;;
27025;SDS011;14565;48.626;8.978;2022-12-18T01:59:51;31.40;;;12.50;;
27025;SDS011;14565;48.626;8.978;2022-12-18T02:02:18;39.88;;;15.02;;
27025;SDS011;14565;48.626;8.978;2022-12-18T02:04:44;35.92;;;14.73;;
27025;SDS011;14565;48.626;8.978;2022-12-18T02:14:37;39.38;;;16.05;;
27025;SDS011;14565;48.626;8.978;2022-12-18T02:17:22;34.13;;;14.85;;
27025;SDS011;14565;48.626;8.978;2022-12-18T02:27:35;42.05;;;17.70;;
27025;SDS011;14565;48.626;8.978;2022-12-18T02:30:03;37.50;;;15.98;;
27025;SDS011;14565;48.626;8.978;2022-12-18T02:32:34;35.00;;;14.93;;
27025;SDS011;14565;48.626;8.978;2022-12-18T02:35:02;39.70;;;17.17;;
27025;SDS011;14565;48.626;8.978;2022-12-18T02:37:29;33.03;;;15.80;;
27025;SDS011;14565;48.626;8.978;2022-12-18T02:39:56;43.10;;;17.30;;
27025;SDS011;14565;48.626;8.978;2022-12-18T02:42:22;47.13;;;17.00;;
27025;SDS011;14565;48.626;8.978;2022-12-18T02:44:49;38.25;;;16.17;;
27025;SDS011;14565;48.626;8.978;2022-12-18T02:47:20;46.03;;;16.50;;
27025;SDS011;14565;48.626;8.978;2022-12-18T03:00:18;47.95;;;19.25;;
27025;SDS011;14565;48.626;8.978;2022-12-18T03:05:16;46.08;;;17.98;;
27025;SDS011;14565;48.626;8.978;2022-12-18T03:07:45;57.53;;;19.75;;
27025;SDS011;14565;48.626;8.978;2022-12-18T03:10:14;50.33;;;20.92;;
27025;SDS011;14565;48.626;8.978;2022-12-18T03:12:43;42.53;;;17.23;;
27025;SDS011;14565;48.626;8.978;2022-12-18T03:15:16;44.67;;;18.08;;
27025;SDS011;14565;48.626;8.978;2022-12-18T03:17:44;52.80;;;21.08;;
27025;SDS011;14565;48.626;8.978;2022-12-18T03:20:13;53.10;;;18.42;;
27025;SDS011;14565;48.626;8.978;2022-12-18T03:22:43;59.10;;;18.58;;
27025;SDS011;14565;48.626;8.978;2022-12-18T03:25:11;48.10;;;18.98;;
27025;SDS011;14565;48.626;8.978;2022-12-18T03:30:05;44.65;;;17.58;;
27025;SDS011;14565;48.626;8.978;2022-12-18T03:33:08;54.70;;;19.98;;
27025;SDS011;14565;48.626;8.978;2022-12-18T03:35:26;55.08;;;19.15;;
27025;SDS011;14565;48.626;8.978;2022-12-18T03:37:54;51.65;;;18.33;;
27025;SDS011;14565;48.626;8.978;2022-12-18T03:40:21;55.70;;;19.35;;
27025;SDS011;14565;48.626;8.978;2022-12-18T03:42:55;49.45;;;18.50;;
27025;SDS011;14565;48.626;8.978;2022-12-18T03:50:46;44.80;;;16.60;;
27025;SDS011;14565;48.626;8.978;2022-12-18T03:56:13;53.08;;;20.15;;
27025;SDS011;14565;48.626;8.978;2022-12-18T03:58:39;53.55;;;18.20;;
27025;SDS011;14565;48.626;8.978;2022-12-18T04:01:09;53.08;;;18.30;;
27025;SDS011;14565;48.626;8.978;2022-12-18T04:03:38;52.22;;;18.70;;
27025;SDS011;14565;48.626;8.978;2022-12-18T04:06:04;56.37;;;20.10;;
27025;SDS011;14565;48.626;8.978;2022-12-18T04:08:31;51.60;;;18.27;;
27025;SDS011;14565;48.626;8.978;2022-12-18T04:10:57;46.60;;;19.17;;
27025;SDS011;14565;48.626;8.978;2022-12-18T04:13:24;51.25;;;19.63;;
27025;SDS011;14565;48.626;8.978;2022-12-18T04:15:50;64.72;;;19.38;;
27025;SDS011;14565;48.626;8.978;2022-12-18T04:18:16;55.25;;;19.98;;
27025;SDS011;14565;48.626;8.978;2022-12-18T04:20:42;47.00;;;18.45;;
27025;SDS011;14565;48.626;8.978;2022-12-18T04:23:08;56.38;;;18.90;;
27025;SDS011;14565;48.626;8.978;2022-12-18T04:25:34;51.97;;;18.92;;
27025;SDS011;14565;48.626;8.978;2022-12-18T04:28:00;62.50;;;22.20;;
27025;SDS011;14565;48.626;8.978;2022-12-18T04:30:26;53.25;;;20.08;;
27025;SDS011;14565;48.626;8.978;2022-12-18T04:32:52;56.58;;;19.67;;
27025;SDS011;14565;48.626;8.978;2022-12-18T04:35:19;58.90;;;19.98;;
27025;SDS011;14565;48.626;8.978;2022-12-18T04:37:45;49.70;;;17.95;;
27025;SDS011;14565;48.626;8.978;2022-12-18T04:40:11;52.13;;;17.98;;
27025;SDS011;14565;48.626;8.978;2022-12-18T04:42:38;61.70;;;20.50;;
27025;SDS011;14565;48.626;8.978;2022-12-18T04:45:07;51.80;;;18.05;;
27025;SDS011;14565;48.626;8.978;2022-12-18T04:47:33;56.10;;;18.85;;
27025;SDS011;14565;48.626;8.978;2022-12-18T04:49:59;52.25;;;19.55;;
27025;SDS011;14565;48.626;8.978;2022-12-18T04:52:25;62.80;;;20.90;;
27025;SDS011;14565;48.626;8.978;2022-12-18T04:54:51;58.03;;;18.35;;
27025;SDS011;14565;48.626;8.978;2022-12-18T04:57:17;54.15;;;18.55;;
27025;SDS011;14565;48.626;8.978;2022-12-18T04:59:44;55.60;;;19.55;;
27025;SDS011;14565;48.626;8.978;2022-12-18T05:02:10;59.60;;;18.75;;
27025;SDS011;14565;48.626;8.978;2022-12-18T05:04:36;56.65;;;18.10;;
27025;SDS011;14565;48.626;8.978;2022-12-18T05:07:05;53.97;;;18.30;;
27025;SDS011;14565;48.626;8.978;2022-12-18T05:09:31;53.50;;;18.42;;
27025;SDS011;14565;48.626;8.978;2022-12-18T05:11:56;47.05;;;17.83;;
27025;SDS011;14565;48.626;8.978;2022-12-18T05:14:22;51.10;;;17.55;;
27025;SDS011;14565;48.626;8.978;2022-12-18T05:16:49;52.25;;;18.30;;
27025;SDS011;14565;48.626;8.978;2022-12-18T05:19:17;62.63;;;17.17;;
27025;SDS011;14565;48.626;8.978;2022-12-18T05:21:43;59.17;;;19.58;;
27025;SDS011;14565;48.626;8.978;2022-12-18T05:24:09;48.67;;;17.83;;
27025;SDS011;14565;48.626;8.978;2022-12-18T05:26:35;50.00;;;16.98;;
27025;SDS011;14565;48.626;8.978;2022-12-18T05:29:01;46.42;;;17.58;;
27025;SDS011;14565;48.626;8.978;2022-12-18T05:31:27;46.72;;;16.05;;
27025;SDS011;14565;48.626;8.978;2022-12-18T05:33:53;45.67;;;17.48;;
27025;SDS011;14565;48.626;8.978;2022-12-18T05:36:19;36.45;;;15.32;;
27025;SDS011;14565;48.626;8.978;2022-12-18T05:38:45;42.53;;;16.13;;
27025;SDS011;14565;48.626;8.978;2022-12-18T05:41:11;46.25;;;16.50;;
27025;SDS011;14565;48.626;8.978;2022-12-18T05:43:38;49.97;;;15.75;;
27025;SDS011;14565;48.626;8.978;2022-12-18T05:46:05;47.10;;;18.15;;
27025;SDS011;14565;48.626;8.978;2022-12-18T05:48:31;48.75;;;16.95;;
27025;SDS011;14565;48.626;8.978;2022-12-18T05:51:02;45.75;;;17.23;;
27025;SDS011;14565;48.626;8.978;2022-12-18T05:53:29;41.22;;;15.68;;
27025;SDS011;14565;48.626;8.978;2022-12-18T05:55:59;45.72;;;16.58;;
27025;SDS011;14565;48.626;8.978;2022-12-18T05:58:25;35.85;;;15.75;;
27025;SDS011;14565;48.626;8.978;2022-12-18T06:00:51;38.47;;;15.10;;
27025;SDS011;14565;48.626;8.978;2022-12-18T06:03:17;42.65;;;15.88;;
27025;SDS011;14565;48.626;8.978;2022-12-18T06:05:43;38.45;;;14.93;;
27025;SDS011;14565;48.626;8.978;2022-12-18T06:08:13;37.92;;;13.50;;
27025;SDS011;14565;48.626;8.978;2022-12-18T06:10:39;36.70;;;13.68;;
27025;SDS011;14565;48.626;8.978;2022-12-18T06:13:05;34.22;;;13.52;;
27025;SDS011;14565;48.626;8.978;2022-12-18T06:15:31;38.75;;;14.95;;
27025;SDS011;14565;48.626;8.978;2022-12-18T06:17:58;37.00;;;14.18;;
27025;SDS011;14565;48.626;8.978;2022-12-18T06:20:24;37.63;;;14.68;;
27025;SDS011;14565;48.626;8.978;2022-12-18T06:22:50;39.40;;;14.02;;
27025;SDS011;14565;48.626;8.978;2022-12-18T06:25:16;33.17;;;14.27;;
27025;SDS011;14565;48.626;8.978;2022-12-18T06:27:42;40.05;;;13.45;;
27025;SDS011;14565;48.626;8.978;2022-12-18T06:30:08;26.35;;;12.13;;
27025;SDS011;14565;48.626;8.978;2022-12-18T06:32:34;34.95;;;13.43;;
27025;SDS011;14565;48.626;8.978;2022-12-18T06:35:00;36.92;;;13.07;;
27025;SDS011;14565;48.626;8.978;2022-12-18T06:37:26;42.08;;;16.70;;
27025;SDS011;14565;48.626;8.978;2022-12-18T06:39:53;137.82;;;43.85;;
27025;SDS011;14565;48.626;8.978;2022-12-18T06:42:22;121.20;;;40.25;;
27025;SDS011;14565;48.626;8.978;2022-12-18T06:44:48;52.60;;;18.05;;
27025;SDS011;14565;48.626;8.978;2022-12-18T06:47:14;40.63;;;14.43;;
27025;SDS011;14565;48.626;8.978;2022-12-18T06:49:40;37.05;;;13.88;;
27025;SDS011;14565;48.626;8.978;2022-12-18T06:52:07;36.95;;;13.55;;
27025;SDS011;14565;48.626;8.978;2022-12-18T06:54:32;30.08;;;12.90;;
27025;SDS011;14565;48.626;8.978;2022-12-18T06:56:59;39.60;;;13.70;;
27025;SDS011;14565;48.626;8.978;2022-12-18T06:59:25;38.25;;;13.85;;
27025;SDS011;14565;48.626;8.978;2022-12-18T07:01:51;34.90;;;14.05;;
27025;SDS011;14565;48.626;8.978;2022-12-18T07:04:17;33.90;;;14.38;;
27025;SDS011;14565;48.626;8.978;2022-12-18T07:06:43;39.05;;;13.48;;
27025;SDS011;14565;48.626;8.978;2022-12-18T07:09:09;39.10;;;14.25;;
27025;SDS011;14565;48.626;8.978;2022-12-18T07:11:35;32.58;;;13.27;;
27025;SDS011;14565;48.626;8.978;2022-12-18T07:14:01;37.80;;;14.13;;
27025;SDS011;14565;48.626;8.978;2022-12-18T07:16:27;41.95;;;15.45;;
27025;SDS011;14565;48.626;8.978;2022-12-18T07:18:56;41.13;;;15.10;;
27025;SDS011;14565;48.626;8.978;2022-12-18T07:21:23;36.15;;;15.07;;
27025;SDS011;14565;48.626;8.978;2022-12-18T07:23:49;36.17;;;13.00;;
27025;SDS011;14565;48.626;8.978;2022-12-18T07:26:16;40.20;;;14.07;;
27025;SDS011;14565;48.626;8.978;2022-12-18T07:28:42;42.92;;;14.90;;
27025;SDS011;14565;48.626;8.978;2022-12-18T07:31:12;39.88;;;17.98;;
27025;SDS011;14565;48.626;8.978;2022-12-18T07:33:39;35.40;;;14.60;;
27025;SDS011;14565;48.626;8.978;2022-12-18T07:36:06;37.45;;;15.07;;
27025;SDS011;14565;48.626;8.978;2022-12-18T07:38:33;35.50;;;14.20;;
27025;SDS011;14565;48.626;8.978;2022-12-18T07:41:02;33.72;;;13.43;;
27025;SDS011;14565;48.626;8.978;2022-12-18T07:43:29;40.10;;;14.25;;
27025;SDS011;14565;48.626;8.978;2022-12-18T07:45:55;36.22;;;14.77;;
27025;SDS011;14565;48.626;8.978;2022-12-18T07:48:21;33.90;;;13.35;;
27025;SDS011;14565;48.626;8.978;2022-12-18T07:50:47;34.85;;;13.20;;
27025;SDS011;14565;48.626;8.978;2022-12-18T07:53:13;31.83;;;12.50;;
27025;SDS011;14565;48.626;8.978;2022-12-18T07:55:40;33.25;;;12.80;;
27025;SDS011;14565;48.626;8.978;2022-12-18T07:58:06;41.17;;;14.70;;
27025;SDS011;14565;48.626;8.978;2022-12-18T08:00:32;50.42;;;15.18;;
27025;SDS011;14565;48.626;8.978;2022-12-18T08:02:58;54.53;;;18.38;;
27025;SDS011;14565;48.626;8.978;2022-12-18T08:05:24;56.97;;;20.08;;
27025;SDS011;14565;48.626;8.978;2022-12-18T08:07:50;46.83;;;20.25;;
27025;SDS011;14565;48.626;8.978;2022-12-18T08:10:16;58.13;;;21.25;;
27025;SDS011;14565;48.626;8.978;2022-12-18T08:12:42;45.30;;;16.20;;
27025;SDS011;14565;48.626;8.978;2022-12-18T08:15:09;31.70;;;12.77;;
27025;SDS011;14565;48.626;8.978;2022-12-18T08:17:35;32.15;;;12.52;;
27025;SDS011;14565;48.626;8.978;2022-12-18T08:20:01;31.05;;;13.02;;
27025;SDS011;14565;48.626;8.978;2022-12-18T08:22:27;36.15;;;13.43;;
27025;SDS011;14565;48.626;8.978;2022-12-18T08:24:53;34.38;;;13.77;;
27025;SDS011;14565;48.626;8.978;2022-12-18T08:27:19;32.40;;;12.95;;
27025;SDS011;14565;48.626;8.978;2022-12-18T08:29:45;35.58;;;14.48;;
27025;SDS011;14565;48.626;8.978;2022-12-18T08:32:11;35.30;;;14.57;;
27025;SDS011;14565;48.626;8.978;2022-12-18T08:34:37;40.65;;;14.00;;
27025;SDS011;14565;48.626;8.978;2022-12-18T08:37:03;35.63;;;13.70;;
27025;SDS011;14565;48.626;8.978;2022-12-18T08:39:29;32.70;;;14.63;;
27025;SDS011;14565;48.626;8.978;2022-12-18T08:41:55;34.50;;;13.90;;
27025;SDS011;14565;48.626;8.978;2022-12-18T08:44:39;34.53;;;13.18;;
27025;SDS011;14565;48.626;8.978;2022-12-18T08:47:06;31.10;;;13.95;;
27025;SDS011;14565;48.626;8.978;2022-12-18T08:49:33;32.30;;;12.50;;
27025;SDS011;14565;48.626;8.978;2022-12-18T08:51:59;29.15;;;14.25;;
27025;SDS011;14565;48.626;8.978;2022-12-18T08:54:25;29.05;;;12.60;;
27025;SDS011;14565;48.626;8.978;2022-12-18T08:56:51;38.33;;;14.98;;
27025;SDS011;14565;48.626;8.978;2022-12-18T08:59:18;35.95;;;14.55;;
27025;SDS011;14565;48.626;8.978;2022-12-18T09:01:45;39.08;;;15.73;;
27025;SDS011;14565;48.626;8.978;2022-12-18T09:04:11;38.80;;;15.23;;
27025;SDS011;14565;48.626;8.978;2022-12-18T09:06:38;36.20;;;16.42;;
27025;SDS011;14565;48.626;8.978;2022-12-18T09:09:05;37.25;;;15.30;;
27025;SDS011;14565;48.626;8.978;2022-12-18T09:11:31;38.95;;;15.73;;
27025;SDS011;14565;48.626;8.978;2022-12-18T09:13:59;37.10;;;16.38;;
27025;SDS011;14565;48.626;8.978;2022-12-18T09:16:25;36.08;;;15.30;;
27025;SDS011;14565;48.626;8.978;2022-12-18T09:18:53;36.40;;;15.57;;
27025;SDS011;14565;48.626;8.978;2022-12-18T09:21:24;33.33;;;14.27;;
27025;SDS011;14565;48.626;8.978;2022-12-18T09:23:50;32.88;;;14.32;;
27025;SDS011;14565;48.626;8.978;2022-12-18T09:26:16;33.58;;;14.23;;
27025;SDS011;14565;48.626;8.978;2022-12-18T09:28:42;37.40;;;15.65;;
27025;SDS011;14565;48.626;8.978;2022-12-18T09:31:08;34.63;;;15.27;;
27025;SDS011;14565;48.626;8.978;2022-12-18T09:33:35;35.67;;;14.20;;
27025;SDS011;14565;48.626;8.978;2022-12-18T09:36:03;31.88;;;14.10;;
27025;SDS011;14565;48.626;8.978;2022-12-18T09:38:29;30.48;;;13.90;;
27025;SDS011;14565;48.626;8.978;2022-12-18T09:41:04;30.65;;;14.45;;
27025;SDS011;14565;48.626;8.978;2022-12-18T09:46:03;33.85;;;14.70;;
27025;SDS011;14565;48.626;8.978;2022-12-18T09:48:32;32.95;;;14.52;;
27025;SDS011;14565;48.626;8.978;2022-12-18T09:51:10;28.10;;;13.02;;
27025;SDS011;14565;48.626;8.978;2022-12-18T09:53:38;32.72;;;13.68;;
27025;SDS011;14565;48.626;8.978;2022-12-18T09:56:06;30.65;;;15.27;;
27025;SDS011;14565;48.626;8.978;2022-12-18T10:01:01;31.45;;;14.27;;
27025;SDS011;14565;48.626;8.978;2022-12-18T10:03:27;30.13;;;14.20;;
27025;SDS011;14565;48.626;8.978;2022-12-18T10:11:21;28.25;;;13.18;;
27025;SDS011;14565;48.626;8.978;2022-12-18T10:19:18;29.55;;;13.88;;
27025;SDS011;14565;48.626;8.978;2022-12-18T10:24:33;30.35;;;14.10;;
27025;SDS011;14565;48.626;8.978;2022-12-18T10:27:11;28.20;;;12.70;;
27025;SDS011;14565;48.626;8.978;2022-12-18T10:29:38;28.73;;;13.40;;
27025;SDS011;14565;48.626;8.978;2022-12-18T10:32:04;26.13;;;12.43;;
27025;SDS011;14565;48.626;8.978;2022-12-18T10:34:30;27.70;;;13.27;;
27025;SDS011;14565;48.626;8.978;2022-12-18T10:36:56;30.50;;;14.38;;
27025;SDS011;14565;48.626;8.978;2022-12-18T10:39:23;30.15;;;13.27;;
27025;SDS011;14565;48.626;8.978;2022-12-18T10:41:59;27.38;;;13.30;;
27025;SDS011;14565;48.626;8.978;2022-12-18T10:44:34;32.58;;;14.10;;
27025;SDS011;14565;48.626;8.978;2022-12-18T10:47:04;30.05;;;13.55;;
27025;SDS011;14565;48.626;8.978;2022-12-18T10:49:31;30.92;;;14.60;;
27025;SDS011;14565;48.626;8.978;2022-12-18T10:54:39;28.85;;;13.43;;
27025;SDS011;14565;48.626;8.978;2022-12-18T10:57:39;28.45;;;14.13;;
27025;SDS011;14565;48.626;8.978;2022-12-18T10:59:58;26.42;;;12.88;;
27025;SDS011;14565;48.626;8.978;2022-12-18T11:02:26;30.80;;;14.15;;
27025;SDS011;14565;48.626;8.978;2022-12-18T11:04:53;30.25;;;13.32;;
27025;SDS011;14565;48.626;8.978;2022-12-18T11:07:19;30.25;;;13.60;;
27025;SDS011;14565;48.626;8.978;2022-12-18T11:09:45;32.47;;;15.65;;
27025;SDS011;14565;48.626;8.978;2022-12-18T11:12:28;27.13;;;12.73;;
27025;SDS011;14565;48.626;8.978;2022-12-18T11:14:57;29.60;;;13.05;;
27025;SDS011;14565;48.626;8.978;2022-12-18T11:19:57;28.70;;;13.55;;
27025;SDS011;14565;48.626;8.978;2022-12-18T11:22:28;26.50;;;12.80;;
27025;SDS011;14565;48.626;8.978;2022-12-18T11:24:59;28.92;;;13.20;;
27025;SDS011;14565;48.626;8.978;2022-12-18T11:27:26;25.65;;;12.48;;
27025;SDS011;14565;48.626;8.978;2022-12-18T11:29:52;32.85;;;14.13;;
27025;SDS011;14565;48.626;8.978;2022-12-18T11:32:33;27.98;;;13.57;;
27025;SDS011;14565;48.626;8.978;2022-12-18T11:37:35;32.92;;;14.52;;
27025;SDS011;14565;48.626;8.978;2022-12-18T11:40:24;34.50;;;15.30;;
27025;SDS011;14565;48.626;8.978;2022-12-18T11:47:55;36.17;;;17.67;;
27025;SDS011;14565;48.626;8.978;2022-12-18T11:50:26;32.75;;;15.35;;
27025;SDS011;14565;48.626;8.978;2022-12-18T11:52:54;27.30;;;14.57;;
27025;SDS011;14565;48.626;8.978;2022-12-18T11:55:25;31.88;;;15.65;;
27025;SDS011;14565;48.626;8.978;2022-12-18T11:58:02;42.53;;;21.77;;
27025;SDS011;14565;48.626;8.978;2022-12-18T12:00:31;49.50;;;24.48;;
27025;SDS011;14565;48.626;8.978;2022-12-18T12:03:21;74.30;;;30.67;;
27025;SDS011;14565;48.626;8.978;2022-12-18T12:13:44;32.20;;;15.65;;
27025;SDS011;14565;48.626;8.978;2022-12-18T12:16:15;28.75;;;14.40;;
27025;SDS011;14565;48.626;8.978;2022-12-18T12:24:05;27.40;;;13.95;;
27025;SDS011;14565;48.626;8.978;2022-12-18T12:36:35;27.25;;;13.18;;
27025;SDS011;14565;48.626;8.978;2022-12-18T12:39:05;30.10;;;14.48;;
27025;SDS011;14565;48.626;8.978;2022-12-18T12:41:32;27.52;;;13.35;;
27025;SDS011;14565;48.626;8.978;2022-12-18T12:44:20;35.90;;;15.35;;
27025;SDS011;14565;48.626;8.978;2022-12-18T12:46:48;31.67;;;13.82;;
27025;SDS011;14565;48.626;8.978;2022-12-18T12:49:15;28.92;;;14.43;;
27025;SDS011;14565;48.626;8.978;2022-12-18T12:51:43;29.45;;;13.52;;
27025;SDS011;14565;48.626;8.978;2022-12-18T12:54:21;37.38;;;16.88;;
27025;SDS011;14565;48.626;8.978;2022-12-18T13:04:45;33.50;;;15.75;;
27025;SDS011;14565;48.626;8.978;2022-12-18T13:12:30;37.88;;;17.42;;
27025;SDS011;14565;48.626;8.978;2022-12-18T13:15:30;33.95;;;17.25;;
27025;SDS011;14565;48.626;8.978;2022-12-18T13:25:58;36.50;;;17.38;;
27025;SDS011;14565;48.626;8.978;2022-12-18T13:31:13;38.20;;;18.35;;
27025;SDS011;14565;48.626;8.978;2022-12-18T13:33:43;49.90;;;22.42;;
27025;SDS011;14565;48.626;8.978;2022-12-18T13:38:39;37.60;;;18.02;;
27025;SDS011;14565;48.626;8.978;2022-12-18T13:51:23;31.52;;;15.95;;
27025;SDS011;14565;48.626;8.978;2022-12-18T13:53:54;34.15;;;14.90;;
27025;SDS011;14565;48.626;8.978;2022-12-18T13:56:22;35.05;;;17.23;;
27025;SDS011;14565;48.626;8.978;2022-12-18T13:59:05;35.42;;;16.60;;
27025;SDS011;14565;48.626;8.978;2022-12-18T14:01:32;31.80;;;14.40;;
27025;SDS011;14565;48.626;8.978;2022-12-18T14:04:11;29.48;;;13.23;;
27025;SDS011;14565;48.626;8.978;2022-12-18T14:06:38;30.20;;;14.55;;
27025;SDS011;14565;48.626;8.978;2022-12-18T14:09:04;32.35;;;16.17;;
27025;SDS011;14565;48.626;8.978;2022-12-18T14:11:30;33.72;;;16.02;;
27025;SDS011;14565;48.626;8.978;2022-12-18T14:13:56;33.22;;;15.95;;
27025;SDS011;14565;48.626;8.978;2022-12-18T14:16:23;38.45;;;16.85;;
27025;SDS011;14565;48.626;8.978;2022-12-18T14:18:53;35.67;;;16.80;;
27025;SDS011;14565;48.626;8.978;2022-12-18T14:21:23;36.58;;;16.30;;
27025;SDS011;14565;48.626;8.978;2022-12-18T14:26:53;33.33;;;15.68;;
27025;SDS011;14565;48.626;8.978;2022-12-18T14:31:45;36.35;;;17.25;;
27025;SDS011;14565;48.626;8.978;2022-12-18T14:34:17;36.45;;;16.83;;
27025;SDS011;14565;48.626;8.978;2022-12-18T14:36:53;38.22;;;17.73;;
27025;SDS011;14565;48.626;8.978;2022-12-18T14:39:21;37.38;;;16.67;;
27025;SDS011;14565;48.626;8.978;2022-12-18T14:41:48;38.38;;;17.33;;
27025;SDS011;14565;48.626;8.978;2022-12-18T14:44:14;44.47;;;19.15;;
27025;SDS011;14565;48.626;8.978;2022-12-18T14:46:44;42.90;;;18.10;;
27025;SDS011;14565;48.626;8.978;2022-12-18T14:49:18;41.78;;;17.90;;
27025;SDS011;14565;48.626;8.978;2022-12-18T14:51:49;43.55;;;18.27;;
27025;SDS011;14565;48.626;8.978;2022-12-18T14:54:17;41.22;;;18.17;;
27025;SDS011;14565;48.626;8.978;2022-12-18T14:57:02;40.47;;;18.10;;
27025;SDS011;14565;48.626;8.978;2022-12-18T14:59:29;37.70;;;16.83;;
27025;SDS011;14565;48.626;8.978;2022-12-18T15:04:41;45.22;;;19.33;;
27025;SDS011;14565;48.626;8.978;2022-12-18T15:07:21;40.83;;;18.63;;
27025;SDS011;14565;48.626;8.978;2022-12-18T15:17:57;44.75;;;18.73;;
27025;SDS011;14565;48.626;8.978;2022-12-18T15:20:23;44.45;;;18.63;;
27025;SDS011;14565;48.626;8.978;2022-12-18T15:22:49;45.30;;;18.52;;
27025;SDS011;14565;48.626;8.978;2022-12-18T15:27:57;46.90;;;19.85;;
27025;SDS011;14565;48.626;8.978;2022-12-18T15:30:23;52.80;;;22.15;;
27025;SDS011;14565;48.626;8.978;2022-12-18T15:32:50;48.67;;;20.57;;
27025;SDS011;14565;48.626;8.978;2022-12-18T15:35:23;42.92;;;18.48;;
27025;SDS011;14565;48.626;8.978;2022-12-18T15:37:51;46.42;;;19.50;;
27025;SDS011;14565;48.626;8.978;2022-12-18T15:40:18;43.70;;;18.48;;
27025;SDS011;14565;48.626;8.978;2022-12-18T15:42:44;41.42;;;17.83;;
27025;SDS011;14565;48.626;8.978;2022-12-18T15:45:29;45.95;;;19.20;;
27025;SDS011;14565;48.626;8.978;2022-12-18T15:47:56;45.90;;;19.70;;
27025;SDS011;14565;48.626;8.978;2022-12-18T15:50:22;43.13;;;18.85;;
27025;SDS011;14565;48.626;8.978;2022-12-18T15:52:48;41.25;;;18.48;;
27025;SDS011;14565;48.626;8.978;2022-12-18T15:55:16;47.17;;;19.42;;
27025;SDS011;14565;48.626;8.978;2022-12-18T15:58:01;41.75;;;17.98;;
27025;SDS011;14565;48.626;8.978;2022-12-18T16:00:27;43.92;;;17.75;;
27025;SDS011;14565;48.626;8.978;2022-12-18T16:02:53;38.08;;;16.25;;
27025;SDS011;14565;48.626;8.978;2022-12-18T16:05:20;42.20;;;17.20;;
27025;SDS011;14565;48.626;8.978;2022-12-18T16:07:46;47.42;;;17.13;;
27025;SDS011;14565;48.626;8.978;2022-12-18T16:10:13;39.17;;;16.08;;
27025;SDS011;14565;48.626;8.978;2022-12-18T16:12:39;42.05;;;16.60;;
27025;SDS011;14565;48.626;8.978;2022-12-18T16:15:06;38.58;;;17.02;;
27025;SDS011;14565;48.626;8.978;2022-12-18T16:17:32;40.22;;;17.38;;
27025;SDS011;14565;48.626;8.978;2022-12-18T16:19:58;44.65;;;16.98;;
27025;SDS011;14565;48.626;8.978;2022-12-18T16:22:25;38.88;;;16.95;;
27025;SDS011;14565;48.626;8.978;2022-12-18T16:27:19;38.22;;;16.38;;
27025;SDS011;14565;48.626;8.978;2022-12-18T16:29:45;41.17;;;15.75;;
27025;SDS011;14565;48.626;8.978;2022-12-18T16:32:12;38.22;;;15.50;;
27025;SDS011;14565;48.626;8.978;2022-12-18T16:37:06;43.33;;;15.27;;
27025;SDS011;14565;48.626;8.978;2022-12-18T16:39:32;42.47;;;16.30;;
27025;SDS011;14565;48.626;8.978;2022-12-18T16:41:59;41.90;;;18.05;;
27025;SDS011;14565;48.626;8.978;2022-12-18T16:44:25;45.28;;;19.20;;
27025;SDS011;14565;48.626;8.978;2022-12-18T16:46:51;45.03;;;18.02;;
27025;SDS011;14565;48.626;8.978;2022-12-18T16:49:18;48.90;;;18.65;;
27025;SDS011;14565;48.626;8.978;2022-12-18T16:51:47;50.35;;;21.90;;
27025;SDS011;14565;48.626;8.978;2022-12-18T16:54:13;48.63;;;21.88;;
27025;SDS011;14565;48.626;8.978;2022-12-18T16:56:39;56.05;;;25.98;;
27025;SDS011;14565;48.626;8.978;2022-12-18T16:59:06;57.00;;;25.48;;
27025;SDS011;14565;48.626;8.978;2022-12-18T17:01:34;51.05;;;23.83;;
27025;SDS011;14565;48.626;8.978;2022-12-18T17:04:01;58.55;;;27.58;;
27025;SDS011;14565;48.626;8.978;2022-12-18T17:06:28;69.13;;;29.75;;
27025;SDS011;14565;48.626;8.978;2022-12-18T17:08:55;67.63;;;28.08;;
27025;SDS011;14565;48.626;8.978;2022-12-18T17:11:22;85.97;;;35.03;;